sensor_id;sensor_type;location;lat;lon;timestamp;temperature;humidity
14154;DHT22;7157;53.144;7.570;2023-09-18T00:06:42;18.70;96.90
14154;DHT22;7157;53.144;7.570;2023-09-18T00:16:47;18.65;96.93
14154;DHT22;7157;53.144;7.570;2023-09-18T00:26:59;18.65;96.87
14154;DHT22;7157;53.144;7.570;2023-09-18T00:37:04;18.44;97.31
14154;DHT22;7157;53.144;7.570;2023-09-18T00:47:07;18.46;97.29
14154;DHT22;7157;53.144;7.570;2023-09-18T00:57:11;18.50;97.26
14154;DHT22;7157;53.144;7.570;2023-09-18T01:07:14;18.52;97.17
14154;DHT22;7157;53.144;7.570;2023-09-18T01:17:18;18.49;97.51
14154;DHT22;7157;53.144;7.570;2023-09-18T01:27:22;18.49;97.39
14154;DHT22;7157;53.144;7.570;2023-09-18T01:37:28;18.52;97.47
14154;DHT22;7157;53.144;7.570;2023-09-18T01:47:33;18.61;97.80
14154;DHT22;7157;53.144;7.570;2023-09-18T01:57:37;18.69;98.20
14154;DHT22;7157;53.144;7.570;2023-09-18T02:07:41;18.74;98.28
14154;DHT22;7157;53.144;7.570;2023-09-18T02:17:43;18.79;98.58
14154;DHT22;7157;53.144;7.570;2023-09-18T02:27:48;18.73;100.06
14154;DHT22;7157;53.144;7.570;2023-09-18T02:37:52;18.71;101.58
14154;DHT22;7157;53.144;7.570;2023-09-18T02:47:56;18.80;102.31
14154;DHT22;7157;53.144;7.570;2023-09-18T02:57:58;18.88;102.63
14154;DHT22;7157;53.144;7.570;2023-09-18T03:08:03;18.99;102.06
14154;DHT22;7157;53.144;7.570;2023-09-18T03:18:06;19.00;102.12
14154;DHT22;7157;53.144;7.570;2023-09-18T03:28:11;18.96;102.27
14154;DHT22;7157;53.144;7.570;2023-09-18T03:38:13;18.95;102.55
14154;DHT22;7157;53.144;7.570;2023-09-18T03:48:18;18.95;102.68
14154;DHT22;7157;53.144;7.570;2023-09-18T03:58:21;18.98;102.25
14154;DHT22;7157;53.144;7.570;2023-09-18T04:08:25;18.98;102.09
14154;DHT22;7157;53.144;7.570;2023-09-18T04:18:28;18.97;102.14
14154;DHT22;7157;53.144;7.570;2023-09-18T04:28:32;19.01;101.99
14154;DHT22;7157;53.144;7.570;2023-09-18T04:38:35;19.06;101.87
14154;DHT22;7157;53.144;7.570;2023-09-18T04:48:40;19.05;102.44
14154;DHT22;7157;53.144;7.570;2023-09-18T04:58:42;19.07;103.58
14154;DHT22;7157;53.144;7.570;2023-09-18T05:08:46;19.22;103.09
14154;DHT22;7157;53.144;7.570;2023-09-18T05:18:49;19.26;103.02
14154;DHT22;7157;53.144;7.570;2023-09-18T05:28:53;19.40;102.76
14154;DHT22;7157;53.144;7.570;2023-09-18T05:38:56;19.57;101.98
14154;DHT22;7157;53.144;7.570;2023-09-18T05:49:00;19.72;101.45
14154;DHT22;7157;53.144;7.570;2023-09-18T05:59:03;19.89;101.09
14154;DHT22;7157;53.144;7.570;2023-09-18T06:09:08;20.06;100.73
14154;DHT22;7157;53.144;7.570;2023-09-18T06:19:11;20.21;100.26
14154;DHT22;7157;53.144;7.570;2023-09-18T06:29:16;20.30;99.85
14154;DHT22;7157;53.144;7.570;2023-09-18T06:39:19;20.37;99.42
14154;DHT22;7157;53.144;7.570;2023-09-18T06:49:25;20.39;99.45
14154;DHT22;7157;53.144;7.570;2023-09-18T06:59:29;19.55;105.32
14154;DHT22;7157;53.144;7.570;2023-09-18T07:09:34;19.69;105.69
14154;DHT22;7157;53.144;7.570;2023-09-18T07:19:47;19.76;107.58
14154;DHT22;7157;53.144;7.570;2023-09-18T07:29:55;19.95;107.43
14154;DHT22;7157;53.144;7.570;2023-09-18T07:39:58;20.13;107.04
14154;DHT22;7157;53.144;7.570;2023-09-18T07:50:02;20.19;107.07
14154;DHT22;7157;53.144;7.570;2023-09-18T08:00:06;20.34;106.66
14154;DHT22;7157;53.144;7.570;2023-09-18T08:10:14;20.29;106.74
14154;DHT22;7157;53.144;7.570;2023-09-18T08:20:17;20.22;106.88
14154;DHT22;7157;53.144;7.570;2023-09-18T08:30:22;20.58;105.85
14154;DHT22;7157;53.144;7.570;2023-09-18T08:40:25;20.70;105.49
14154;DHT22;7157;53.144;7.570;2023-09-18T08:50:29;20.84;105.10
14154;DHT22;7157;53.144;7.570;2023-09-18T09:00:32;21.02;104.82
14154;DHT22;7157;53.144;7.570;2023-09-18T09:10:38;20.94;104.63
14154;DHT22;7157;53.144;7.570;2023-09-18T09:20:41;20.91;104.63
14154;DHT22;7157;53.144;7.570;2023-09-18T09:30:45;21.19;104.03
14154;DHT22;7157;53.144;7.570;2023-09-18T09:40:48;21.29;103.74
14154;DHT22;7157;53.144;7.570;2023-09-18T09:50:57;21.27;103.89
14154;DHT22;7157;53.144;7.570;2023-09-18T10:01:03;21.64;102.09
14154;DHT22;7157;53.144;7.570;2023-09-18T10:11:16;21.96;100.88
14154;DHT22;7157;53.144;7.570;2023-09-18T10:21:26;21.98;99.97
14154;DHT22;7157;53.144;7.570;2023-09-18T10:31:35;22.36;98.94
14154;DHT22;7157;53.144;7.570;2023-09-18T10:41:39;23.07;96.91
14154;DHT22;7157;53.144;7.570;2023-09-18T10:51:46;23.53;94.43
14154;DHT22;7157;53.144;7.570;2023-09-18T11:01:49;23.25;93.66
14154;DHT22;7157;53.144;7.570;2023-09-18T11:11:54;23.61;90.11
14154;DHT22;7157;53.144;7.570;2023-09-18T11:22:07;24.82;83.08
14154;DHT22;7157;53.144;7.570;2023-09-18T11:32:13;26.63;74.64
14154;DHT22;7157;53.144;7.570;2023-09-18T11:42:18;27.32;65.88
14154;DHT22;7157;53.144;7.570;2023-09-18T11:52:26;27.44;62.69
14154;DHT22;7157;53.144;7.570;2023-09-18T12:02:30;32.26;50.02
14154;DHT22;7157;53.144;7.570;2023-09-18T12:12:39;33.12;44.87
14154;DHT22;7157;53.144;7.570;2023-09-18T12:22:47;34.30;43.15
14154;DHT22;7157;53.144;7.570;2023-09-18T12:32:52;34.95;37.62
14154;DHT22;7157;53.144;7.570;2023-09-18T12:42:56;30.45;48.04
14154;DHT22;7157;53.144;7.570;2023-09-18T12:53:11;27.66;54.89
14154;DHT22;7157;53.144;7.570;2023-09-18T13:03:14;26.61;56.81
14154;DHT22;7157;53.144;7.570;2023-09-18T13:13:19;26.22;59.88
14154;DHT22;7157;53.144;7.570;2023-09-18T13:23:28;25.53;60.81
14154;DHT22;7157;53.144;7.570;2023-09-18T13:33:33;25.06;63.25
14154;DHT22;7157;53.144;7.570;2023-09-18T13:43:36;25.12;62.00
14154;DHT22;7157;53.144;7.570;2023-09-18T13:53:40;25.34;60.96
14154;DHT22;7157;53.144;7.570;2023-09-18T14:03:44;25.34;59.50
14154;DHT22;7157;53.144;7.570;2023-09-18T14:13:49;24.50;62.77
14154;DHT22;7157;53.144;7.570;2023-09-18T14:23:51;24.28;62.76
14154;DHT22;7157;53.144;7.570;2023-09-18T14:33:55;25.04;61.21
14154;DHT22;7157;53.144;7.570;2023-09-18T14:43:59;25.14;62.08
14154;DHT22;7157;53.144;7.570;2023-09-18T14:54:03;24.66;64.08
14154;DHT22;7157;53.144;7.570;2023-09-18T15:04:08;24.24;66.71
14154;DHT22;7157;53.144;7.570;2023-09-18T15:14:12;24.04;68.56
14154;DHT22;7157;53.144;7.570;2023-09-18T15:24:16;24.38;67.25
14154;DHT22;7157;53.144;7.570;2023-09-18T15:34:21;23.76;67.42
14154;DHT22;7157;53.144;7.570;2023-09-18T15:44:25;23.90;67.17
14154;DHT22;7157;53.144;7.570;2023-09-18T15:54:29;23.84;67.35
14154;DHT22;7157;53.144;7.570;2023-09-18T16:04:32;23.65;68.88
14154;DHT22;7157;53.144;7.570;2023-09-18T16:14:36;23.52;69.65
14154;DHT22;7157;53.144;7.570;2023-09-18T16:24:39;23.66;69.75
14154;DHT22;7157;53.144;7.570;2023-09-18T16:34:43;23.41;71.30
14154;DHT22;7157;53.144;7.570;2023-09-18T16:44:45;23.23;71.79
14154;DHT22;7157;53.144;7.570;2023-09-18T16:54:50;23.07;72.41
14154;DHT22;7157;53.144;7.570;2023-09-18T17:04:52;22.87;73.03
14154;DHT22;7157;53.144;7.570;2023-09-18T17:14:57;22.61;74.12
14154;DHT22;7157;53.144;7.570;2023-09-18T17:24:59;22.55;74.99
14154;DHT22;7157;53.144;7.570;2023-09-18T17:35:04;22.47;76.31
14154;DHT22;7157;53.144;7.570;2023-09-18T17:45:08;22.50;75.79
14154;DHT22;7157;53.144;7.570;2023-09-18T17:55:12;21.00;87.48
14154;DHT22;7157;53.144;7.570;2023-09-18T18:05:15;19.63;98.25
14154;DHT22;7157;53.144;7.570;2023-09-18T18:15:20;18.33;100.58
14154;DHT22;7157;53.144;7.570;2023-09-18T18:25:23;17.81;101.32
14154;DHT22;7157;53.144;7.570;2023-09-18T18:35:27;17.33;103.03
14154;DHT22;7157;53.144;7.570;2023-09-18T18:45:30;17.33;103.76
14154;DHT22;7157;53.144;7.570;2023-09-18T18:55:34;17.51;103.72
14154;DHT22;7157;53.144;7.570;2023-09-18T19:05:37;17.50;103.63
